Time;durP1;ratioP1;P1;durP2;ratioP2;P2;SDS_P1;SDS_P2;PMS_P1;PMS_P2;Temp;Humidity;BMP_temperature;BMP_pressure;BME280_temperature;BME280_humidity;BME280_pressure;Samples;Min_cycle;Max_cycle;Signal;HPM_P1;HPM_P2
2023/10/04 00:01:38;;;;;;;2.85;1.45;;;;;;;14.76;89.28;102456.84;5076988;28;20107;-73
2023/10/04 00:04:04;;;;;;;2.97;1.48;;;;;;;14.76;89.71;102451.56;5078558;28;20032;-73
2023/10/04 00:06:33;;;;;;;1.83;1.17;;;;;;;14.77;90.17;102469.97;5077207;28;20056;-73
2023/10/04 00:08:59;;;;;;;3.50;1.60;;;;;;;14.76;90.32;102465.59;5078028;28;20099;-73
2023/10/04 00:11:26;;;;;;;4.07;1.27;;;;;;;14.75;89.93;102468.28;5077847;28;20032;-73
2023/10/04 00:13:52;;;;;;;3.13;1.63;;;;;;;14.76;89.96;102475.28;5077392;28;20407;-73
2023/10/04 00:16:18;;;;;;;1.55;1.20;;;;;;;14.77;90.23;102471.72;5076896;28;20247;-72
2023/10/04 00:18:43;;;;;;;2.85;1.30;;;;;;;14.77;90.36;102471.72;5083135;28;20022;-73
2023/10/04 00:21:12;;;;;;;3.83;1.70;;;;;;;14.77;90.68;102475.25;5083823;28;20039;-73
2023/10/04 00:23:38;;;;;;;2.15;1.08;;;;;;;14.76;90.82;102473.50;5078699;28;20028;-73
2023/10/04 00:26:07;;;;;;;1.70;1.08;;;;;;;14.76;91.11;102472.66;5083160;28;20261;-73
2023/10/04 00:28:37;;;;;;;1.42;1.20;;;;;;;14.74;91.29;102472.69;5076569;28;20331;-73
2023/10/04 00:31:03;;;;;;;1.63;1.00;;;;;;;14.72;91.11;102469.25;5079799;28;20016;-73
2023/10/04 00:33:28;;;;;;;5.50;1.10;;;;;;;14.72;90.88;102474.53;5093154;28;20040;-73
2023/10/04 00:35:54;;;;;;;1.83;1.00;;;;;;;14.71;90.97;102480.69;5077270;28;20036;-73
2023/10/04 00:38:20;;;;;;;2.83;1.20;;;;;;;14.71;90.93;102482.47;5077622;28;20028;-73
2023/10/04 00:40:47;;;;;;;2.53;1.30;;;;;;;14.70;91.06;102492.19;5077243;28;20420;-72
2023/10/04 00:43:15;;;;;;;1.02;0.95;;;;;;;14.69;91.06;102486.94;5077512;28;20078;-73
2023/10/04 00:45:47;;;;;;;2.22;1.58;;;;;;;14.70;91.22;102489.53;5076370;28;20067;-73
2023/10/04 00:48:18;;;;;;;2.53;1.02;;;;;;;14.69;91.60;102489.59;5077325;28;20063;-73
2023/10/04 00:50:44;;;;;;;1.42;1.20;;;;;;;14.67;91.38;102489.63;5076806;28;20101;-73
2023/10/04 00:53:15;;;;;;;1.35;1.00;;;;;;;14.66;91.40;102493.19;5077220;28;20255;-73
2023/10/04 00:55:44;;;;;;;1.33;0.80;;;;;;;14.65;91.45;102499.38;5076214;28;20028;-73
2023/10/04 00:58:12;;;;;;;1.10;1.00;;;;;;;14.65;91.71;102495.88;5077102;28;20042;-72
2023/10/04 01:00:42;;;;;;;1.60;0.97;;;;;;;14.64;91.96;102500.25;5076595;28;20056;-72
2023/10/04 01:03:09;;;;;;;4.15;1.23;;;;;;;14.64;91.93;102496.78;5077150;28;20708;-72
2023/10/04 01:05:44;;;;;;;1.75;1.20;;;;;;;14.63;91.94;102498.56;5076417;28;20060;-72
2023/10/04 01:08:10;;;;;;;2.45;1.13;;;;;;;14.63;92.06;102505.59;5077327;28;20043;-72
2023/10/04 01:10:37;;;;;;;2.78;1.08;;;;;;;14.61;92.50;102500.38;5076657;28;20294;-72
2023/10/04 01:13:05;;;;;;;1.35;0.85;;;;;;;14.63;92.37;102510.88;5076300;28;20041;-72
2023/10/04 01:15:36;;;;;;;1.95;1.00;;;;;;;14.62;92.46;102510.00;5076123;28;20259;-73
2023/10/04 01:18:11;;;;;;;2.22;1.40;;;;;;;14.61;92.50;102512.69;5076526;28;20031;-72
2023/10/04 01:20:40;;;;;;;2.40;1.42;;;;;;;14.58;92.29;102508.38;5076591;28;20066;-73
2023/10/04 01:23:09;;;;;;;2.95;1.30;;;;;;;14.58;92.27;102509.22;5077133;28;20035;-73
2023/10/04 01:25:36;;;;;;;2.13;1.42;;;;;;;14.57;92.23;102504.88;5076038;28;20024;-72
2023/10/04 01:28:12;;;;;;;3.20;1.50;;;;;;;14.57;92.15;102506.59;5076926;28;20038;-73
2023/10/04 01:30:41;;;;;;;1.75;1.15;;;;;;;14.57;92.31;102501.31;5076237;28;20040;-73
2023/10/04 01:33:15;;;;;;;4.32;1.63;;;;;;;14.56;92.34;102502.25;5076536;28;20063;-73
2023/10/04 01:35:49;;;;;;;1.88;1.15;;;;;;;14.56;92.51;102494.34;5080117;28;20031;-73
2023/10/04 01:38:15;;;;;;;1.20;1.10;;;;;;;14.54;91.99;102498.81;5096951;28;20141;-73
2023/10/04 01:40:43;;;;;;;3.95;1.10;;;;;;;14.54;92.29;102506.72;5081629;28;20293;-72
2023/10/04 01:43:17;;;;;;;2.00;1.23;;;;;;;14.54;92.33;102509.34;5076330;28;20036;-73
2023/10/04 01:45:51;;;;;;;2.45;1.40;;;;;;;14.53;92.26;102505.84;5085918;28;20028;-72
2023/10/04 01:48:20;;;;;;;2.10;1.23;;;;;;;14.52;92.10;102512.03;5096046;28;20051;-72
2023/10/04 01:50:48;;;;;;;;;;;;;;;14.49;91.89;102512.13;5084999;28;20235;-72
2023/10/04 01:53:14;;;;;;;;;;;;;;;14.48;91.98;102506.88;5087879;28;19916;-73
2023/10/04 01:55:40;;;;;;;2.25;1.17;;;;;;;14.47;91.72;102508.66;5075583;28;19924;-72
2023/10/04 01:58:06;;;;;;;4.35;1.38;;;;;;;14.47;92.14;102505.19;5076083;28;20100;-72
2023/10/04 02:00:33;;;;;;;2.45;1.40;;;;;;;14.47;92.25;102502.53;5075449;28;20040;-73
2023/10/04 02:02:59;;;;;;;2.65;1.48;;;;;;;14.46;92.30;102493.78;5075951;28;20135;-73
2023/10/04 02:05:42;;;;;;;2.20;1.15;;;;;;;14.46;92.25;102487.63;5075265;28;20363;-72
2023/10/04 02:08:15;;;;;;;3.05;1.35;;;;;;;14.43;92.24;102491.22;5075997;28;20107;-72
2023/10/04 02:10:50;;;;;;;3.22;1.13;;;;;;;14.43;92.26;102495.66;5075600;28;20055;-72
2023/10/04 02:13:16;;;;;;;2.88;1.50;;;;;;;14.40;91.98;102496.59;5075827;28;20347;-73
2023/10/04 02:15:50;;;;;;;2.78;1.48;;;;;;;14.38;92.11;102495.78;5075179;28;20063;-73
2023/10/04 02:18:16;;;;;;;2.17;1.55;;;;;;;14.36;92.21;102500.22;5075772;28;20037;-73
2023/10/04 02:20:49;;;;;;;1.60;1.50;;;;;;;14.36;92.22;102510.78;5075277;28;20063;-73
2023/10/04 02:23:18;;;;;;;2.15;1.27;;;;;;;14.35;92.57;102511.66;5075760;28;20142;-72
2023/10/04 02:25:44;;;;;;;3.88;1.20;;;;;;;14.33;92.65;102510.84;5075187;28;20342;-72
2023/10/04 02:28:11;;;;;;;1.92;1.30;;;;;;;14.32;92.65;102514.41;5075413;28;20075;-72
2023/10/04 02:30:40;;;;;;;2.17;1.20;;;;;;;14.31;92.67;102513.53;5074738;28;20050;-72
2023/10/04 02:33:09;;;;;;;3.53;1.48;;;;;;;14.30;92.83;102521.50;5075618;28;20433;-74
2023/10/04 02:35:35;;;;;;;2.88;1.38;;;;;;;14.26;92.52;102520.72;5074904;28;20081;-74
2023/10/04 02:38:08;;;;;;;3.20;1.63;;;;;;;14.25;92.54;102524.25;5075328;28;20048;-74
2023/10/04 02:40:34;;;;;;;3.17;1.48;;;;;;;14.24;92.34;102526.94;5074967;28;20036;-74
2023/10/04 02:43:00;;;;;;;1.15;0.90;;;;;;;14.21;92.44;102531.41;5075115;28;20028;-73
2023/10/04 02:45:27;;;;;;;1.90;1.38;;;;;;;14.20;92.76;102529.66;5074730;28;20028;-74
2023/10/04 02:47:53;;;;;;;4.68;1.30;;;;;;;14.20;92.58;102549.88;5075185;28;20134;-74
2023/10/04 02:50:23;;;;;;;3.28;1.25;;;;;;;14.18;92.61;102534.09;5075410;28;20044;-74
2023/10/04 02:52:50;;;;;;;5.68;1.42;;;;;;;14.17;92.26;102534.16;5078300;28;20122;-74
2023/10/04 02:55:19;;;;;;;3.53;1.63;;;;;;;14.16;92.49;102535.94;5084925;28;20036;-74
2023/10/04 02:57:49;;;;;;;5.05;1.67;;;;;;;14.13;92.36;102538.63;5071463;28;20039;-74
2023/10/04 03:00:19;;;;;;;5.22;1.80;;;;;;;14.13;92.23;102532.53;5074890;28;20078;-74
2023/10/04 03:02:50;;;;;;;3.30;1.60;;;;;;;14.12;92.47;102536.94;5073357;28;20073;-74
2023/10/04 03:05:18;;;;;;;2.17;1.45;;;;;;;14.12;92.56;102529.03;5074820;28;20371;-74
2023/10/04 03:07:45;;;;;;;2.97;1.40;;;;;;;14.11;92.93;102529.06;5074657;28;20036;-74
2023/10/04 03:10:11;;;;;;;2.60;1.35;;;;;;;14.08;92.80;102530.03;5054902;28;20043;-74
2023/10/04 03:12:41;;;;;;;2.40;1.45;;;;;;;14.09;93.04;102534.38;5054452;28;20037;-74
2023/10/04 03:15:07;;;;;;;2.30;1.38;;;;;;;14.07;92.86;102538.81;5074200;28;20032;-73
2023/10/04 03:17:33;;;;;;;4.00;1.73;;;;;;;14.04;92.78;102528.38;5073249;28;20238;-73
2023/10/04 03:20:00;;;;;;;2.90;1.48;;;;;;;14.05;92.76;102527.47;5075026;28;20210;-73
2023/10/04 03:22:25;;;;;;;3.33;1.70;;;;;;;14.04;93.14;102522.25;5074757;28;20040;-73
2023/10/04 03:24:51;;;;;;;3.28;1.63;;;;;;;14.03;93.15;102529.28;5074739;28;20146;-74
2023/10/04 03:27:24;;;;;;;2.83;1.45;;;;;;;14.02;92.89;102527.56;5075002;28;20223;-74
2023/10/04 03:29:51;;;;;;;3.28;1.33;;;;;;;14.01;93.18;102512.66;5077475;28;20044;-74
2023/10/04 03:32:18;;;;;;;3.35;1.30;;;;;;;13.99;92.84;102506.59;5074348;28;20041;-74
2023/10/04 03:34:44;;;;;;;2.55;1.50;;;;;;;13.97;93.11;102506.63;5085904;28;20063;-74
2023/10/04 03:37:09;;;;;;;1.40;1.02;;;;;;;13.96;93.05;102515.41;5076065;28;20351;-74
2023/10/04 03:39:38;;;;;;;3.25;1.42;;;;;;;13.94;93.25;102514.59;5074123;28;20036;-74
2023/10/04 03:42:04;;;;;;;2.78;1.67;;;;;;;13.90;93.26;102519.97;5074314;28;20032;-74
2023/10/04 03:44:29;;;;;;;4.40;1.70;;;;;;;13.89;93.06;102527.03;5073325;28;20219;-74
2023/10/04 03:46:55;;;;;;;2.33;1.50;;;;;;;13.87;93.20;102523.59;5069674;28;20219;-74
2023/10/04 03:49:21;;;;;;;2.78;1.50;;;;;;;13.85;93.23;102520.13;5073594;28;20093;-73
2023/10/04 03:51:51;;;;;;;2.78;1.60;;;;;;;13.82;93.41;102517.56;5068066;28;20035;-73
2023/10/04 03:54:16;;;;;;;3.47;1.73;;;;;;;13.79;93.17;102517.69;5073679;28;20032;-73
2023/10/04 03:56:42;;;;;;;2.47;1.60;;;;;;;13.75;93.03;102513.38;5073283;28;20083;-73
2023/10/04 03:59:08;;;;;;;6.70;1.90;;;;;;;13.68;92.57;102509.19;5074438;28;20074;-73
2023/10/04 04:01:33;;;;;;;4.65;1.80;;;;;;;13.62;92.06;102519.00;5071960;28;20032;-73
2023/10/04 04:04:03;;;;;;;3.33;1.67;;;;;;;13.56;91.95;102510.41;5074052;28;20427;-74
2023/10/04 04:06:29;;;;;;;3.95;1.70;;;;;;;13.49;91.97;102506.19;5070497;28;20039;-73
2023/10/04 04:08:56;;;;;;;5.03;1.90;;;;;;;13.43;92.17;102496.69;5074359;28;20384;-73
2023/10/04 04:11:22;;;;;;;3.55;1.70;;;;;;;13.41;92.33;102487.97;5073959;28;20200;-74
2023/10/04 04:13:48;;;;;;;2.63;1.40;;;;;;;13.42;92.58;102487.06;5073582;28;20047;-74
2023/10/04 04:16:17;;;;;;;2.20;1.27;;;;;;;13.43;93.07;102492.28;5073696;28;20032;-74
2023/10/04 04:18:42;;;;;;;2.85;2.00;;;;;;;13.44;93.04;102479.97;5072865;28;20524;-74
2023/10/04 04:21:08;;;;;;;3.67;1.60;;;;;;;13.44;93.31;102479.97;5074188;28;20042;-74
2023/10/04 04:23:34;;;;;;;2.97;1.48;;;;;;;13.44;93.68;102482.63;5074098;28;20024;-74
2023/10/04 04:26:06;;;;;;;3.05;1.48;;;;;;;13.45;93.77;102492.25;5074213;28;20323;-74
2023/10/04 04:28:35;;;;;;;3.75;1.27;;;;;;;13.44;93.85;102501.03;5074729;28;20039;-74
2023/10/04 04:31:01;;;;;;;2.60;1.58;;;;;;;13.41;93.71;102517.78;5077366;28;20032;-74
2023/10/04 04:33:28;;;;;;;3.67;1.48;;;;;;;13.38;93.78;102503.84;5076560;28;20070;-73
2023/10/04 04:36:00;;;;;;;5.68;1.75;;;;;;;13.36;93.73;102522.28;5077488;28;20032;-74
2023/10/04 04:38:28;;;;;;;4.05;1.83;;;;;;;13.33;93.57;102527.63;5075134;28;20339;-74
2023/10/04 04:40:56;;;;;;;4.60;2.00;;;;;;;13.31;93.68;102529.44;5076467;28;20041;-74
2023/10/04 04:45:51;;;;;;;3.95;1.55;;;;;;;13.28;93.89;102523.34;5073712;28;20013;-74
2023/10/04 04:48:18;;;;;;;3.53;1.98;;;;;;;13.22;93.74;102521.75;5076784;28;20321;-74
2023/10/04 04:50:43;;;;;;;5.22;1.70;;;;;;;13.17;93.78;102526.25;5077526;28;20040;-74
2023/10/04 04:53:14;;;;;;;4.57;1.83;;;;;;;13.08;93.81;102524.72;5076435;28;20294;-74
2023/10/04 04:55:40;;;;;;;4.57;1.50;;;;;;;13.06;93.96;102521.25;5075993;28;20036;-74
2023/10/04 04:58:06;;;;;;;3.58;2.10;;;;;;;13.05;94.30;102519.53;5076173;28;20273;-74
2023/10/04 05:00:33;;;;;;;3.55;1.92;;;;;;;13.05;94.42;102525.66;5073627;28;20388;-74
2023/10/04 05:03:00;;;;;;;4.20;1.98;;;;;;;13.00;94.49;102534.56;5076145;28;20031;-74
2023/10/04 05:05:25;;;;;;;2.83;1.80;;;;;;;12.96;94.82;102530.28;5072777;28;20479;-74
2023/10/04 05:07:51;;;;;;;3.25;1.80;;;;;;;12.97;94.96;102529.38;5074931;28;20024;-74
2023/10/04 05:10:22;;;;;;;2.90;1.63;;;;;;;12.99;95.14;102540.75;5074303;28;20114;-74
2023/10/04 05:12:48;;;;;;;3.78;1.83;;;;;;;13.01;95.31;102538.94;5075157;28;20048;-74
2023/10/04 05:15:27;;;;;;;3.50;2.00;;;;;;;13.01;95.61;102541.56;5077312;28;20327;-73
2023/10/04 05:17:53;;;;;;;2.50;1.98;;;;;;;13.00;95.51;102547.72;5071138;28;20097;-73
2023/10/04 05:20:22;;;;;;;6.30;2.63;;;;;;;13.01;95.62;102549.44;5070801;28;20041;-73
2023/10/04 05:22:52;;;;;;;5.97;2.25;;;;;;;12.99;95.76;102548.63;5072090;28;20107;-73
2023/10/04 05:25:20;;;;;;;4.95;2.00;;;;;;;13.00;95.94;102545.94;5066653;28;20060;-74
2023/10/04 05:27:48;;;;;;;3.72;2.13;;;;;;;12.96;95.75;102541.66;5067897;28;20752;-74
2023/10/04 05:30:15;;;;;;;5.50;2.10;;;;;;;12.91;95.54;102545.28;5078585;28;20036;-74
2023/10/04 05:32:42;;;;;;;5.88;2.03;;;;;;;12.89;95.48;102542.69;5084893;28;20311;-74
2023/10/04 05:35:12;;;;;;;5.95;2.25;;;;;;;12.86;95.71;102556.78;5085718;28;20029;-74
2023/10/04 05:37:38;;;;;;;4.90;2.25;;;;;;;12.86;95.71;102554.16;5081477;28;20116;-74
2023/10/04 05:40:09;;;;;;;3.83;2.13;;;;;;;12.85;95.53;102559.44;5085976;28;20363;-74
2023/10/04 05:42:34;;;;;;;4.78;1.95;;;;;;;12.84;96.01;102555.97;5075348;28;20298;-74
2023/10/04 05:45:00;;;;;;;4.15;2.63;;;;;;;12.86;96.14;102555.91;5085709;28;20035;-74
2023/10/04 05:47:25;;;;;;;7.30;2.22;;;;;;;12.86;96.17;102551.53;5089150;28;20075;-74
2023/10/04 05:49:51;;;;;;;4.50;2.20;;;;;;;12.89;96.10;102563.72;5073177;28;20033;-74
2023/10/04 05:52:17;;;;;;;7.53;2.83;;;;;;;12.91;96.30;102561.06;5075289;28;20031;-74
2023/10/04 05:54:42;;;;;;;1.92;1.70;;;;;;;12.94;96.53;102555.75;5074589;28;20111;-74
2023/10/04 05:57:08;;;;;;;6.47;2.10;;;;;;;12.96;96.54;102561.84;5075238;28;20255;-74
2023/10/04 05:59:34;;;;;;;4.20;2.13;;;;;;;12.94;96.32;102561.88;5075338;28;20074;-74
2023/10/04 06:02:01;;;;;;;4.60;2.20;;;;;;;12.95;96.66;102560.97;5065251;28;20029;-74
2023/10/04 06:04:27;;;;;;;3.28;2.10;;;;;;;12.97;96.70;102560.91;5070155;28;20039;-74
2023/10/04 06:06:52;;;;;;;7.43;2.78;;;;;;;13.00;96.77;102572.22;5078797;28;20301;-74
2023/10/04 06:09:29;;;;;;;4.07;1.88;;;;;;;13.02;96.98;102572.19;5075867;28;20040;-74
2023/10/04 06:11:55;;;;;;;7.18;2.10;;;;;;;13.03;96.96;102569.53;5078747;28;20085;-74
2023/10/04 06:14:20;;;;;;;2.80;2.25;;;;;;;13.04;97.27;102573.03;5085425;28;20029;-74
2023/10/04 06:16:47;;;;;;;5.00;2.05;;;;;;;13.04;97.27;102576.53;5072244;28;20093;-74
2023/10/04 06:19:13;;;;;;;4.32;2.10;;;;;;;13.03;97.29;102572.16;5071854;28;20103;-74
2023/10/04 06:21:40;;;;;;;3.45;2.40;;;;;;;13.05;97.33;102569.50;5075099;28;20362;-74
2023/10/04 06:24:06;;;;;;;5.22;2.05;;;;;;;13.05;97.44;102570.38;5071226;28;20035;-74
2023/10/04 06:26:32;;;;;;;4.13;2.20;;;;;;;13.04;97.35;102575.66;5071318;28;20032;-74
2023/10/04 06:28:57;;;;;;;3.10;2.13;;;;;;;13.03;97.57;102581.84;5077262;28;20433;-74
2023/10/04 06:31:22;;;;;;;7.43;2.75;;;;;;;13.01;97.75;102576.59;5091623;28;20099;-74
2023/10/04 06:33:53;;;;;;;3.42;2.38;;;;;;;13.02;98.03;102585.34;5088888;28;20232;-74
2023/10/04 06:36:18;;;;;;;5.88;2.42;;;;;;;13.03;98.62;102580.06;5081392;28;20327;-74
2023/10/04 06:38:44;;;;;;;5.57;2.25;;;;;;;13.06;98.65;102579.09;5074315;28;20412;-74
2023/10/04 06:41:09;;;;;;;2.65;2.10;;;;;;;13.09;98.63;102575.56;5089566;28;20099;-74
2023/10/04 06:43:35;;;;;;;3.97;2.25;;;;;;;13.13;98.67;102574.59;5073196;28;20044;-74
2023/10/04 06:46:00;;;;;;;9.75;2.20;;;;;;;13.16;98.75;102578.00;5073987;28;20028;-74
2023/10/04 06:48:26;;;;;;;6.78;2.80;;;;;;;13.17;99.00;102579.75;5073569;28;20052;-74
2023/10/04 06:50:51;;;;;;;8.35;3.30;;;;;;;13.19;99.40;102587.59;5074083;28;20047;-74
2023/10/04 06:53:17;;;;;;;6.63;3.00;;;;;;;13.21;99.73;102585.81;5076617;28;20063;-74
2023/10/04 06:55:42;;;;;;;9.25;2.83;;;;;;;13.25;99.87;102592.72;5075506;28;20252;-74
2023/10/04 06:58:10;;;;;;;7.78;3.42;;;;;;;13.28;100.00;102595.28;5082722;28;20115;-74
2023/10/04 07:00:36;;;;;;;5.32;2.40;;;;;;;13.31;100.00;102592.59;5075253;28;20397;-74
2023/10/04 07:03:03;;;;;;;7.10;2.90;;;;;;;13.33;100.00;102592.56;5077930;28;20032;-74
2023/10/04 07:05:32;;;;;;;4.03;2.50;;;;;;;13.35;100.00;102594.25;5074185;28;20107;-74
2023/10/04 07:07:58;;;;;;;;;;;;;;;13.36;100.00;102601.25;5074962;28;20032;-74
2023/10/04 07:10:25;;;;;;;6.00;2.90;;;;;;;13.39;100.00;102606.44;5073921;28;19978;-74
2023/10/04 07:12:52;;;;;;;8.88;2.63;;;;;;;13.41;100.00;102603.78;5074322;28;20032;-74
2023/10/04 07:15:18;;;;;;;5.05;2.67;;;;;;;13.43;100.00;102601.97;5074992;28;20067;-74
2023/10/04 07:17:44;;;;;;;8.82;2.80;;;;;;;13.46;100.00;102609.75;5073484;28;20103;-74
2023/10/04 07:20:15;;;;;;;7.65;2.92;;;;;;;13.49;100.00;102599.16;5078387;28;20044;-74
2023/10/04 07:22:58;;;;;;;6.05;2.63;;;;;;;13.54;100.00;102601.69;5074398;28;20754;-74
2023/10/04 07:25:25;;;;;;;7.20;2.67;;;;;;;13.56;100.00;102599.88;5074586;28;20040;-74
2023/10/04 07:27:51;;;;;;;3.70;2.30;;;;;;;13.59;100.00;102605.09;5073029;28;20028;-74
2023/10/04 07:30:16;;;;;;;5.25;2.60;;;;;;;13.61;100.00;102609.41;5074452;28;20284;-74
2023/10/04 07:32:43;;;;;;;4.20;2.20;;;;;;;13.65;100.00;102604.91;5077189;28;20036;-74
2023/10/04 07:35:18;;;;;;;4.03;2.25;;;;;;;13.65;100.00;102597.03;5072700;28;20371;-74
2023/10/04 07:37:44;;;;;;;5.40;2.38;;;;;;;13.68;100.00;102601.34;5082596;28;20040;-74
2023/10/04 07:40:13;;;;;;;9.48;3.05;;;;;;;13.71;100.00;102609.16;5074730;28;20369;-74
2023/10/04 07:42:39;;;;;;;6.55;2.80;;;;;;;13.75;100.00;102608.16;5076871;28;20032;-74
2023/10/04 07:45:06;;;;;;;6.28;2.53;;;;;;;13.77;100.00;102611.63;5076646;28;20979;-74
2023/10/04 07:47:34;;;;;;;6.95;3.30;;;;;;;13.81;100.00;102619.41;5076217;28;20028;-74
2023/10/04 07:49:59;;;;;;;8.98;3.55;;;;;;;13.84;100.00;102618.47;5084894;28;20032;-74
2023/10/04 07:52:25;;;;;;;8.57;3.85;;;;;;;13.85;100.00;102614.94;5080619;28;20036;-74
2023/10/04 07:54:53;;;;;;;5.97;2.95;;;;;;;13.90;100.00;102628.84;5084893;28;20028;-74
2023/10/04 07:57:19;;;;;;;10.03;3.13;;;;;;;13.92;100.00;102637.56;5075714;28;20108;-74
2023/10/04 07:59:44;;;;;;;8.27;3.20;;;;;;;13.95;100.00;102631.34;5075316;28;20302;-74
2023/10/04 08:02:11;;;;;;;23.27;3.97;;;;;;;13.96;100.00;102635.72;5069348;28;20052;-74
2023/10/04 08:04:36;;;;;;;9.18;3.40;;;;;;;13.98;100.00;102636.53;5070601;28;20351;-73
2023/10/04 08:07:02;;;;;;;8.32;3.30;;;;;;;14.02;100.00;102638.19;5074515;28;20028;-74
2023/10/04 08:09:27;;;;;;;9.45;2.92;;;;;;;14.06;100.00;102642.50;5076090;28;20036;-73
2023/10/04 08:11:53;;;;;;;9.63;3.08;;;;;;;14.11;100.00;102643.22;5078089;28;20395;-73
2023/10/04 08:14:21;;;;;;;5.35;3.10;;;;;;;14.13;100.00;102641.41;5073800;28;20032;-74
2023/10/04 08:16:49;;;;;;;8.25;3.10;;;;;;;14.16;100.00;102643.09;5073822;28;20046;-74
2023/10/04 08:19:15;;;;;;;5.50;2.70;;;;;;;14.18;100.00;102654.47;5071507;28;20138;-74
2023/10/04 08:21:41;;;;;;;8.07;2.90;;;;;;;14.20;100.00;102640.31;5075360;28;20054;-74
2023/10/04 08:24:06;;;;;;;12.20;3.13;;;;;;;14.22;100.00;102645.56;5077342;28;20039;-74
2023/10/04 08:26:33;;;;;;;14.10;3.90;;;;;;;14.25;100.00;102645.47;5076972;28;20096;-74
2023/10/04 08:28:59;;;;;;;6.45;2.78;;;;;;;14.28;100.00;102647.16;5077526;28;20285;-74
2023/10/04 08:31:24;;;;;;;13.85;3.78;;;;;;;14.31;100.00;102650.56;5076943;28;20343;-74
2023/10/04 08:33:50;;;;;;;5.63;2.90;;;;;;;14.33;100.00;102643.47;5072480;28;20035;-74
2023/10/04 08:36:17;;;;;;;8.60;3.25;;;;;;;14.36;100.00;102642.56;5070015;28;20351;-74
2023/10/04 08:38:45;;;;;;;5.85;2.90;;;;;;;14.39;100.00;102643.34;5071794;28;20036;-74
2023/10/04 08:41:11;;;;;;;6.10;2.83;;;;;;;14.40;100.00;102647.69;5073379;28;20048;-74
2023/10/04 08:43:37;;;;;;;11.50;3.38;;;;;;;14.42;100.00;102649.41;5075236;28;20020;-74
2023/10/04 08:46:04;;;;;;;14.73;3.28;;;;;;;14.41;100.00;102643.28;5064413;28;20377;-74
2023/10/04 08:48:30;;;;;;;15.23;3.55;;;;;;;14.43;100.00;102641.47;5071499;28;20239;-74
2023/10/04 08:51:08;;;;;;;7.85;3.30;;;;;;;14.46;100.00;102641.41;5076101;28;20024;-74
2023/10/04 08:53:49;;;;;;;7.43;3.17;;;;;;;14.49;100.00;102643.94;5072171;28;20230;-74
2023/10/04 08:56:17;;;;;;;14.70;3.22;;;;;;;14.52;100.00;102648.25;5071288;28;20063;-74
2023/10/04 08:58:43;;;;;;;7.15;3.20;;;;;;;14.54;100.00;102638.53;5070564;28;20045;-74
2023/10/04 09:01:11;;;;;;;12.95;3.95;;;;;;;14.56;100.00;102648.13;5074726;28;20036;-74
2023/10/04 09:03:40;;;;;;;7.03;3.10;;;;;;;14.62;100.00;102646.25;5071163;28;20259;-73
2023/10/04 09:06:07;;;;;;;;;;;;;;;14.64;100.00;102636.53;5074194;28;20068;-74
2023/10/04 09:08:33;;;;;;;13.38;3.42;;;;;;;14.69;100.00;102635.47;5067970;28;19917;-74
2023/10/04 09:10:59;;;;;;;18.63;3.67;;;;;;;14.73;100.00;102634.47;5067936;28;20095;-73
2023/10/04 09:13:25;;;;;;;9.35;2.80;;;;;;;14.78;100.00;102636.97;5072842;28;20058;-74
2023/10/04 09:15:51;;;;;;;12.73;3.47;;;;;;;14.81;100.00;102636.91;5070349;28;20070;-74
2023/10/04 09:18:27;;;;;;;16.13;3.40;;;;;;;14.85;100.00;102638.53;5072736;28;20043;-74
2023/10/04 09:20:52;;;;;;;10.25;3.17;;;;;;;14.87;100.00;102641.97;5073514;28;20195;-74
2023/10/04 09:23:22;;;;;;;11.65;3.28;;;;;;;14.89;100.00;102640.16;5072938;28;20067;-74
2023/10/04 09:25:48;;;;;;;17.27;3.22;;;;;;;14.91;100.00;102637.47;5075806;28;20063;-74
2023/10/04 09:28:14;;;;;;;15.10;3.47;;;;;;;14.95;100.00;102644.38;5074354;28;20039;-73
2023/10/04 09:30:39;;;;;;;13.38;3.60;;;;;;;14.97;99.98;102648.72;5073261;28;20068;-74
2023/10/04 09:33:20;;;;;;;7.55;2.80;;;;;;;15.01;99.75;102659.16;5072898;28;20103;-74
2023/10/04 09:35:46;;;;;;;11.05;3.15;;;;;;;15.02;99.33;102652.97;5071251;28;20059;-74
2023/10/04 09:38:17;;;;;;;13.30;3.40;;;;;;;15.08;99.41;102652.78;5073929;28;20047;-74
2023/10/04 09:40:50;;;;;;;7.85;2.83;;;;;;;15.11;99.51;102653.53;5076919;28;20051;-74
2023/10/04 09:43:16;;;;;;;13.40;4.15;;;;;;;15.12;99.65;102647.38;5077171;28;20024;-74
2023/10/04 09:45:58;;;;;;;10.90;3.03;;;;;;;15.14;99.14;102652.59;5089223;28;20043;-74
2023/10/04 09:48:25;;;;;;;9.10;3.13;;;;;;;15.12;99.19;102651.78;5076468;28;20032;-74
2023/10/04 09:50:59;;;;;;;5.95;2.90;;;;;;;15.10;99.29;102651.84;5081308;28;20029;-74
2023/10/04 09:53:25;;;;;;;15.35;3.92;;;;;;;15.08;99.19;102648.38;5069764;28;20044;-74
2023/10/04 09:55:53;;;;;;;17.67;3.70;;;;;;;15.09;99.72;102646.59;5077876;28;20036;-74
2023/10/04 09:58:23;;;;;;;17.38;4.25;;;;;;;15.12;99.62;102647.38;5071021;28;20226;-74
2023/10/04 10:00:52;;;;;;;12.63;3.65;;;;;;;15.13;99.90;102638.56;5090718;28;20126;-74
2023/10/04 10:03:23;;;;;;;12.70;3.25;;;;;;;15.13;99.90;102643.84;5074165;28;20036;-74
2023/10/04 10:05:50;;;;;;;12.02;3.50;;;;;;;15.14;99.82;102636.78;5078884;28;20055;-74
2023/10/04 10:08:18;;;;;;;10.50;2.85;;;;;;;15.18;99.81;102648.97;5073562;28;20173;-74
2023/10/04 10:10:43;;;;;;;8.50;3.38;;;;;;;15.22;99.67;102637.38;5088287;28;20040;-74
2023/10/04 10:13:09;;;;;;;15.50;3.88;;;;;;;15.26;98.37;102639.03;5068899;28;20040;-74
2023/10/04 10:15:36;;;;;;;12.15;3.22;;;;;;;15.31;98.05;102650.28;5074280;28;20242;-75
2023/10/04 10:18:03;;;;;;;5.40;2.88;;;;;;;15.34;96.33;102654.63;5070608;28;20088;-74
2023/10/04 10:20:29;;;;;;;11.68;2.80;;;;;;;15.37;94.94;102654.50;5076292;28;20028;-74
2023/10/04 10:22:57;;;;;;;5.97;2.90;;;;;;;15.41;92.81;102648.22;5085561;28;20390;-74
2023/10/04 10:25:23;;;;;;;6.45;2.67;;;;;;;15.46;92.52;102648.94;5080560;28;20289;-74
2023/10/04 10:27:49;;;;;;;9.27;2.65;;;;;;;15.48;92.43;102647.13;5084443;28;20039;-74
2023/10/04 10:30:16;;;;;;;5.45;2.40;;;;;;;15.50;91.07;102640.00;5083452;28;20059;-74
2023/10/04 10:32:54;;;;;;;7.45;2.38;;;;;;;15.52;91.46;102643.47;5069856;28;20224;-74
2023/10/04 10:35:48;;;;;;;11.13;3.88;;;;;;;15.54;90.70;102641.63;5069979;28;20107;-74
2023/10/04 10:38:49;;;;;;;6.30;2.50;;;;;;;15.60;90.94;102648.47;5073928;28;20134;-74
2023/10/04 10:41:34;;;;;;;6.25;2.80;;;;;;;15.62;91.11;102636.09;5035215;28;20070;-74
2023/10/04 10:44:11;;;;;;;10.40;3.20;;;;;;;15.62;89.98;102630.81;5079736;28;20088;-74
2023/10/04 10:46:52;;;;;;;10.27;2.65;;;;;;;15.64;90.32;102626.31;5079300;28;20036;-74
2023/10/04 10:49:36;;;;;;;17.20;3.03;;;;;;;15.67;90.93;102635.94;5079559;28;20142;-74
2023/10/04 10:52:02;;;;;;;11.15;2.80;;;;;;;15.68;90.90;102627.09;5084338;28;20059;-74
2023/10/04 10:54:28;;;;;;;6.55;2.58;;;;;;;15.68;89.43;102635.00;5074060;28;20066;-74
2023/10/04 10:56:53;;;;;;;11.23;3.05;;;;;;;15.65;87.10;102638.63;5070498;28;20036;-74
2023/10/04 10:59:19;;;;;;;15.30;3.20;;;;;;;15.64;85.94;102633.41;5076277;28;20037;-74
2023/10/04 11:01:44;;;;;;;6.82;3.00;;;;;;;15.63;86.10;102629.91;5073846;28;20036;-74
2023/10/04 11:04:10;;;;;;;7.57;2.67;;;;;;;15.63;86.25;102642.25;5077876;28;20031;-75
2023/10/04 11:06:38;;;;;;;5.53;2.80;;;;;;;15.62;86.71;102632.59;5090139;28;20331;-74
2023/10/04 11:09:05;;;;;;;8.18;2.72;;;;;;;15.61;86.02;102631.75;5073200;28;20345;-74
2023/10/04 11:11:30;;;;;;;13.93;3.03;;;;;;;15.59;86.03;102630.94;5073737;28;20300;-74
2023/10/04 11:13:59;;;;;;;9.07;2.60;;;;;;;15.59;85.94;102636.22;5074031;28;20051;-74
2023/10/04 11:16:29;;;;;;;9.15;2.83;;;;;;;15.61;86.38;102628.22;5074106;28;20047;-74
2023/10/04 11:18:54;;;;;;;6.75;3.00;;;;;;;15.63;86.97;102618.47;5062326;28;20040;-74
2023/10/04 11:21:20;;;;;;;11.07;2.95;;;;;;;15.65;87.39;102620.16;5072282;28;20491;-74
2023/10/04 11:23:48;;;;;;;8.20;2.85;;;;;;;15.68;87.38;102617.41;5075267;28;20040;-74
2023/10/04 11:26:13;;;;;;;7.60;2.55;;;;;;;15.70;87.50;102620.00;5074316;28;20063;-74
2023/10/04 11:28:39;;;;;;;7.00;2.30;;;;;;;15.70;88.01;102620.84;5066780;28;20040;-74
2023/10/04 11:31:04;;;;;;;7.53;2.05;;;;;;;15.70;87.31;102609.44;5073135;28;20028;-74